Port Taufiq, Egypt
Current Conditions -  °F | °C
As of 9:30 AM on Thursday 18 Dec 2014 (Local Time) from HECA Reporting Station
Broken Clouds Broken Clouds  
Wind Chill: 64°   Ceiling: 7000
Heat Index: 64°   Visibility: 4mi
Dew Point: 39°   Wind: 6mph
Humidity: 40%   Direction: 170°S
Pressure: 30.09"   Gusts: NA
Location:  29.95°N, 32.57°E
Report Text: HECA 180730Z 17005KT 6000 FEW025 BKN070 18/04 Q1019 NOSIG
Loading
Personal Weather Stations






























Interactive Weather Map New forecast layout! Learn more

10-Day Weather Forecast

Advertisements
Track Severe Weather on mobile